Time;durP1;ratioP1;P1;durP2;ratioP2;P2;SDS_P1;SDS_P2;PMS_P1;PMS_P2;Temp;Humidity;BMP_temperature;BMP_pressure;BME280_temperature;BME280_humidity;BME280_pressure;Samples;Min_cycle;Max_cycle;Signal;HPM_P1;HPM_P2
2023/09/22 04:22:34;;;;;;;2.35;1.27;;;;;;;13.56;100.00;98894.13;5089377;28;20362;-69
2023/09/22 04:25:01;;;;;;;3.97;1.60;;;;;;;13.58;100.00;98905.41;5089421;28;20025;-69
2023/09/22 04:27:34;;;;;;;7.40;2.22;;;;;;;13.57;100.00;98919.84;5089379;28;20032;-69
2023/09/22 04:30:00;;;;;;;4.25;2.40;;;;;;;13.63;100.00;98917.28;5089310;28;20119;-69
2023/09/22 04:32:33;;;;;;;4.05;1.70;;;;;;;13.64;100.00;98903.69;5089088;28;20116;-69
2023/09/22 04:35:02;;;;;;;5.25;1.52;;;;;;;13.68;100.00;98907.53;5089056;28;20090;-69
2023/09/22 04:37:28;;;;;;;3.30;1.63;;;;;;;13.66;100.00;98917.66;5089171;28;20058;-70
2023/09/22 04:39:54;;;;;;;3.30;1.40;;;;;;;13.63;100.00;98926.16;5089228;28;20502;-68
2023/09/22 04:42:22;;;;;;;4.13;1.40;;;;;;;13.60;100.00;98926.59;5088988;28;20424;-69
2023/09/22 04:44:50;;;;;;;5.93;1.63;;;;;;;13.57;100.00;98954.63;5089061;28;20040;-68
2023/09/22 04:47:15;;;;;;;4.15;2.42;;;;;;;13.63;100.00;98962.75;5088927;28;20041;-68
2023/09/22 04:49:41;;;;;;;5.78;2.90;;;;;;;13.63;100.00;98963.59;5089034;28;20090;-68
2023/09/22 04:52:08;;;;;;;5.03;2.53;;;;;;;13.67;100.00;98951.41;5088872;28;20474;-69
2023/09/22 04:54:33;;;;;;;8.48;3.10;;;;;;;13.67;100.00;98959.44;5088799;28;20146;-69
2023/09/22 04:56:59;;;;;;;3.60;1.77;;;;;;;13.65;100.00;98956.16;5088940;28;20063;-69
2023/09/22 04:59:24;;;;;;;6.18;2.63;;;;;;;13.71;100.00;98954.47;5088919;28;20047;-69
2023/09/22 05:01:50;;;;;;;7.00;2.47;;;;;;;13.72;100.00;98961.44;5088665;28;20040;-68
2023/09/22 05:04:15;;;;;;;2.95;1.33;;;;;;;13.70;100.00;98972.38;5088447;28;20504;-68
2023/09/22 05:06:43;;;;;;;6.22;1.55;;;;;;;13.74;100.00;98965.50;5088607;28;20479;-69
2023/09/22 05:09:09;;;;;;;2.10;1.25;;;;;;;13.77;100.00;98973.09;5088648;28;20089;-68
2023/09/22 05:11:35;;;;;;;2.40;1.15;;;;;;;13.74;100.00;98968.19;5087611;28;20119;-69
2023/09/22 05:14:01;;;;;;;3.55;1.70;;;;;;;13.76;100.00;98968.81;5088193;28;20125;-68
2023/09/22 05:16:27;;;;;;;2.35;1.48;;;;;;;13.75;100.00;98961.78;5088419;28;20043;-68
2023/09/22 05:18:54;;;;;;;6.35;1.50;;;;;;;13.80;100.00;98969.97;5088425;28;20487;-69
2023/09/22 05:21:19;;;;;;;3.22;1.67;;;;;;;13.79;100.00;98983.59;5088032;28;20036;-68
2023/09/22 05:23:46;;;;;;;6.95;1.30;;;;;;;13.77;100.00;98991.84;5088129;28;20039;-70
2023/09/22 05:26:12;;;;;;;6.67;1.47;;;;;;;13.77;100.00;98989.16;5088197;28;20040;-69
2023/09/22 05:28:38;;;;;;;2.13;1.00;;;;;;;13.69;100.00;98992.16;5088226;28;20297;-69
2023/09/22 05:31:05;;;;;;;4.30;1.80;;;;;;;13.68;100.00;99006.53;5088156;28;20040;-69
2023/09/22 05:33:35;;;;;;;8.02;2.38;;;;;;;13.64;100.00;99026.78;5076715;28;20179;-69
2023/09/22 05:36:01;;;;;;;6.65;2.40;;;;;;;13.64;100.00;99039.34;5074603;28;20040;-69
2023/09/22 05:38:27;;;;;;;4.07;2.20;;;;;;;13.71;100.00;99042.75;5074550;28;20039;-70
2023/09/22 05:40:53;;;;;;;3.70;1.70;;;;;;;13.77;100.00;99050.72;5074609;28;20036;-69
2023/09/22 05:43:22;;;;;;;2.75;1.27;;;;;;;13.81;100.00;99041.19;5074282;28;20033;-69
2023/09/22 05:45:52;;;;;;;2.33;1.40;;;;;;;13.82;100.00;99044.69;5074360;28;20479;-67
2023/09/22 05:48:18;;;;;;;1.58;1.13;;;;;;;13.87;100.00;99057.41;5074472;28;20438;-68
2023/09/22 05:50:43;;;;;;;4.30;1.90;;;;;;;13.87;100.00;99068.09;5074348;28;20058;-69
2023/09/22 05:53:09;;;;;;;3.85;1.60;;;;;;;13.90;100.00;99065.81;5074071;28;20506;-68
2023/09/22 05:55:34;;;;;;;1.88;1.20;;;;;;;13.93;100.00;99068.03;5074309;28;20051;-68
2023/09/22 05:58:00;;;;;;;4.38;2.10;;;;;;;13.95;100.00;99089.22;5074229;28;20044;-68
2023/09/22 06:00:26;;;;;;;3.25;1.67;;;;;;;13.94;100.00;99092.94;5074238;28;20510;-68
2023/09/22 06:02:52;;;;;;;4.22;1.58;;;;;;;13.94;100.00;99087.59;5074192;28;20434;-67
2023/09/22 06:05:25;;;;;;;2.88;1.42;;;;;;;13.91;100.00;99090.72;5074056;28;20086;-67
2023/09/22 06:07:51;;;;;;;5.20;1.30;;;;;;;13.96;100.00;99088.19;5074143;28;20033;-68
2023/09/22 06:10:17;;;;;;;4.55;1.70;;;;;;;13.91;100.00;99106.78;5074078;28;20029;-54
2023/09/22 06:12:42;;;;;;;3.08;1.50;;;;;;;13.92;100.00;99103.88;5073713;28;20112;-59
2023/09/22 06:15:09;;;;;;;2.25;1.02;;;;;;;13.93;100.00;99102.00;5073876;28;20055;-55
2023/09/22 06:17:36;;;;;;;4.45;1.52;;;;;;;13.94;100.00;99091.06;5073941;28;20079;-59
2023/09/22 06:20:13;;;;;;;2.33;1.20;;;;;;;13.94;100.00;99077.69;5073873;28;20043;-61
2023/09/22 06:22:41;;;;;;;1.55;1.17;;;;;;;13.97;100.00;99076.44;5073613;28;20483;-56
2023/09/22 06:25:08;;;;;;;3.20;1.10;;;;;;;13.99;100.00;99069.00;5073645;28;20036;-55
2023/09/22 06:27:33;;;;;;;3.15;1.50;;;;;;;14.01;100.00;99073.06;5073731;28;20027;-58
2023/09/22 06:30:00;;;;;;;3.40;1.42;;;;;;;14.03;100.00;99070.19;5073656;28;20049;-59
2023/09/22 06:32:25;;;;;;;2.45;1.40;;;;;;;14.04;100.00;99069.97;5073313;28;20048;-56
2023/09/22 06:34:53;;;;;;;2.67;1.10;;;;;;;14.07;100.00;99068.69;5073433;28;20045;-55
2023/09/22 06:37:19;;;;;;;4.15;1.30;;;;;;;14.09;100.00;99071.97;5073530;28;20471;-56
2023/09/22 06:39:45;;;;;;;2.35;1.38;;;;;;;14.10;100.00;99081.66;5073501;28;20049;-54
2023/09/22 06:42:11;;;;;;;2.38;1.30;;;;;;;14.10;100.00;99092.34;5073322;28;20040;-57
2023/09/22 06:44:36;;;;;;;3.60;1.58;;;;;;;14.13;100.00;99103.41;5072308;28;20086;-57
2023/09/22 06:47:03;;;;;;;2.50;1.42;;;;;;;14.17;100.00;99105.66;5073137;28;20499;-61
2023/09/22 06:49:28;;;;;;;1.50;1.08;;;;;;;14.19;100.00;99101.72;5073275;28;20036;-56
2023/09/22 06:51:54;;;;;;;2.85;1.20;;;;;;;14.25;100.00;99095.47;5073114;28;20041;-56
2023/09/22 06:54:20;;;;;;;5.90;1.70;;;;;;;14.26;100.00;99102.44;5072911;28;20127;-58
2023/09/22 06:56:46;;;;;;;2.15;1.17;;;;;;;14.28;100.00;99108.41;5072998;28;20040;-57
2023/09/22 06:59:13;;;;;;;3.33;1.38;;;;;;;14.32;100.00;99103.41;5073008;28;20052;-59
2023/09/22 07:01:40;;;;;;;2.50;1.27;;;;;;;14.28;100.00;99095.03;5072990;28;20441;-61
2023/09/22 07:04:09;;;;;;;4.32;1.35;;;;;;;14.34;100.00;99102.16;5072731;28;20479;-57
2023/09/22 07:06:36;;;;;;;2.22;1.20;;;;;;;14.33;100.00;99105.88;5072892;28;20033;-60
2023/09/22 07:09:02;;;;;;;5.78;1.42;;;;;;;14.35;100.00;99111.84;5073152;28;20066;-59
2023/09/22 07:11:28;;;;;;;2.30;1.10;;;;;;;14.36;100.00;99097.38;5072713;28;20033;-58
2023/09/22 07:13:54;;;;;;;1.92;1.50;;;;;;;14.38;100.00;99099.84;5072578;28;20507;-57
2023/09/22 07:16:20;;;;;;;3.15;1.45;;;;;;;14.39;100.00;99107.66;5072739;28;20119;-58
2023/09/22 07:18:45;;;;;;;2.80;1.40;;;;;;;14.42;100.00;99116.28;5071412;28;20055;-58
2023/09/22 07:21:11;;;;;;;3.47;1.48;;;;;;;14.40;100.00;99093.19;5072662;28;20068;-61
2023/09/22 07:23:37;;;;;;;4.88;1.52;;;;;;;14.46;100.00;99091.50;5072370;28;20036;-61
2023/09/22 07:26:04;;;;;;;3.08;1.60;;;;;;;14.50;100.00;99091.91;5072518;28;20380;-59
2023/09/22 07:28:30;;;;;;;;;;;;;;;14.54;100.00;99099.25;5072931;28;20441;-59
2023/09/22 07:30:56;;;;;;;3.03;1.30;;;;;;;14.60;100.00;99113.59;5072467;28;20054;-58
2023/09/22 07:33:29;;;;;;;1.63;1.00;;;;;;;14.62;100.00;99122.25;5072285;28;20123;-57
2023/09/22 07:35:55;;;;;;;1.08;0.77;;;;;;;14.61;100.00;99124.09;5072416;28;20037;-61
2023/09/22 07:38:20;;;;;;;2.90;1.10;;;;;;;14.62;100.00;99123.06;5072421;28;20025;-56
2023/09/22 07:40:46;;;;;;;2.15;1.00;;;;;;;14.66;100.00;99112.69;5072325;28;20506;-58
2023/09/22 07:43:12;;;;;;;1.85;0.90;;;;;;;14.62;100.00;99128.41;5071916;28;20072;-56
2023/09/22 07:45:38;;;;;;;1.73;0.85;;;;;;;14.64;100.00;99130.88;5072186;28;20048;-58
2023/09/22 07:48:05;;;;;;;1.40;0.80;;;;;;;14.65;100.00;99140.53;5072277;28;20495;-58
2023/09/22 07:50:32;;;;;;;2.97;0.90;;;;;;;14.67;100.00;99151.88;5072183;28;20044;-55
2023/09/22 07:52:57;;;;;;;1.17;0.80;;;;;;;14.68;100.00;99142.78;5073881;28;20165;-64
2023/09/22 07:55:23;;;;;;;4.28;1.40;;;;;;;14.70;100.00;99135.31;5072026;28;20062;-63
2023/09/22 07:57:50;;;;;;;2.67;0.88;;;;;;;14.75;100.00;99132.78;5072379;28;20043;-62
2023/09/22 08:00:18;;;;;;;2.20;0.85;;;;;;;14.78;100.00;99136.84;5073334;28;20051;-63
2023/09/22 08:02:45;;;;;;;4.63;1.27;;;;;;;14.83;100.00;99129.78;5072498;28;20040;-65
2023/09/22 08:05:15;;;;;;;2.10;1.15;;;;;;;14.91;100.00;99139.34;5073660;28;20063;-63
2023/09/22 08:07:44;;;;;;;2.85;1.20;;;;;;;14.95;100.00;99140.56;5072681;28;20046;-64
2023/09/22 08:10:11;;;;;;;4.28;1.00;;;;;;;15.00;100.00;99139.88;5071978;28;20020;-62
2023/09/22 08:12:43;;;;;;;1.35;0.90;;;;;;;15.02;100.00;99137.78;5071765;28;20044;-63
2023/09/22 08:15:09;;;;;;;4.07;1.30;;;;;;;15.01;100.00;99147.69;5061573;28;20360;-64
2023/09/22 08:17:35;;;;;;;2.08;1.13;;;;;;;15.08;100.00;99147.59;5055226;28;20028;-63
2023/09/22 08:20:01;;;;;;;4.93;1.50;;;;;;;15.08;100.00;99153.75;5058824;28;20201;-63
2023/09/22 08:22:27;;;;;;;2.10;1.08;;;;;;;15.11;100.00;99155.16;5056920;28;20051;-64
2023/09/22 08:24:53;;;;;;;3.25;1.50;;;;;;;15.11;100.00;99157.84;5062358;28;20491;-64
2023/09/22 08:27:19;;;;;;;2.92;1.70;;;;;;;15.10;100.00;99150.84;5060832;28;20410;-62
2023/09/22 08:29:47;;;;;;;2.53;1.25;;;;;;;15.11;100.00;99157.84;5066015;28;20040;-64
2023/09/22 08:32:13;;;;;;;2.22;1.33;;;;;;;15.10;100.00;99161.56;5071581;28;20040;-63
2023/09/22 08:34:38;;;;;;;1.90;1.50;;;;;;;15.13;100.00;99156.59;5071229;28;20041;-64
2023/09/22 08:37:04;;;;;;;3.58;1.25;;;;;;;15.17;100.00;99149.69;5067700;28;20036;-63
2023/09/22 08:39:30;;;;;;;2.45;1.20;;;;;;;15.08;100.00;99151.09;5061250;28;20072;-64
2023/09/22 08:41:58;;;;;;;1.80;1.10;;;;;;;15.08;100.00;99158.31;5054717;28;20091;-63
2023/09/22 08:44:25;;;;;;;1.90;1.05;;;;;;;15.01;100.00;99158.41;5060850;28;20044;-62
2023/09/22 08:46:52;;;;;;;3.03;1.25;;;;;;;14.96;100.00;99166.31;5062226;28;20037;-63
2023/09/22 08:49:21;;;;;;;1.98;1.13;;;;;;;14.89;100.00;99161.03;5060516;28;20025;-62
2023/09/22 08:51:47;;;;;;;7.35;1.27;;;;;;;14.79;100.00;99160.75;5062007;28;20040;-63
2023/09/22 08:54:13;;;;;;;2.03;0.88;;;;;;;14.74;100.00;99165.19;5060519;28;20560;-64
2023/09/22 08:56:38;;;;;;;2.70;1.00;;;;;;;14.63;100.00;99161.41;5061919;28;20044;-64
2023/09/22 08:59:04;;;;;;;3.00;1.25;;;;;;;14.54;100.00;99168.94;5060183;28;20099;-62
2023/09/22 09:01:29;;;;;;;3.22;1.20;;;;;;;14.55;100.00;99170.56;5061111;28;20043;-62
2023/09/22 09:03:55;;;;;;;3.47;1.25;;;;;;;14.51;100.00;99172.03;5061297;28;20021;-64
2023/09/22 09:06:20;;;;;;;2.75;1.23;;;;;;;14.49;100.00;99170.66;5059988;28;20036;-65
2023/09/22 09:09:12;;;;;;;4.90;1.20;;;;;;;14.43;100.00;99172.31;5064568;28;20036;-64
2023/09/22 09:11:57;;;;;;;4.80;1.23;;;;;;;14.41;100.00;99174.41;5065988;28;20067;-64
2023/09/22 09:14:23;;;;;;;2.13;0.98;;;;;;;14.39;100.00;99174.63;5063123;28;20041;-63
2023/09/22 09:16:49;;;;;;;3.58;1.27;;;;;;;14.40;100.00;99168.22;5055188;28;20047;-64
2023/09/22 09:19:15;;;;;;;2.33;1.10;;;;;;;14.39;100.00;99168.44;5055525;28;20049;-62
2023/09/22 09:22:05;;;;;;;3.50;1.10;;;;;;;14.42;100.00;99175.22;5054936;28;20044;-64
2023/09/22 09:24:32;;;;;;;1.33;0.90;;;;;;;14.44;100.00;99179.31;5054813;28;20496;-64
2023/09/22 09:26:57;;;;;;;2.25;1.13;;;;;;;14.49;100.00;99184.03;5054924;28;20043;-63
2023/09/22 09:29:29;;;;;;;9.30;2.10;;;;;;;14.59;100.00;99176.28;5054795;28;20041;-64
2023/09/22 09:31:59;;;;;;;2.45;1.30;;;;;;;14.76;100.00;99163.91;5054687;28;20041;-62
2023/09/22 09:34:40;;;;;;;2.03;1.10;;;;;;;15.14;100.00;99162.75;5054626;28;20033;-64
2023/09/22 09:37:16;;;;;;;2.28;1.15;;;;;;;15.43;100.00;99163.75;5054689;28;20056;-64
2023/09/22 09:39:46;;;;;;;2.47;1.20;;;;;;;15.59;100.00;99170.31;5054768;28;20068;-65
2023/09/22 09:42:14;;;;;;;2.60;1.25;;;;;;;15.62;100.00;99168.00;5054352;28;20288;-64
2023/09/22 09:45:03;;;;;;;1.60;0.98;;;;;;;15.58;100.00;99166.78;5054884;28;20087;-64
2023/09/22 09:47:32;;;;;;;3.25;1.35;;;;;;;15.69;100.00;99162.53;5054358;28;20128;-64
2023/09/22 09:49:58;;;;;;;3.15;1.10;;;;;;;15.75;100.00;99148.19;5054435;28;20094;-64
2023/09/22 09:52:50;;;;;;;1.50;1.08;;;;;;;15.89;100.00;99149.56;5054012;28;20128;-64
2023/09/22 09:55:17;;;;;;;1.30;0.93;;;;;;;16.38;100.00;99152.78;5053651;28;20536;-64
2023/09/22 09:57:45;;;;;;;3.78;1.35;;;;;;;17.23;100.00;99164.66;5054544;28;20085;-64
2023/09/22 10:00:18;;;;;;;2.28;1.10;;;;;;;18.09;100.00;99155.25;5054246;28;20033;-64
2023/09/22 10:02:47;;;;;;;1.13;0.88;;;;;;;18.62;100.00;99159.16;5054013;28;20033;-63
2023/09/22 10:05:17;;;;;;;1.05;0.68;;;;;;;19.28;100.00;99158.25;5053997;28;20048;-64
2023/09/22 10:07:43;;;;;;;1.27;0.70;;;;;;;19.71;100.00;99155.41;5054188;28;20090;-64
2023/09/22 10:10:11;;;;;;;3.33;1.08;;;;;;;19.67;97.67;99154.28;5053936;28;20032;-64
2023/09/22 10:12:37;;;;;;;3.15;1.33;;;;;;;19.88;94.71;99162.53;5053602;28;20056;-64
2023/09/22 10:15:04;;;;;;;1.40;1.13;;;;;;;19.61;98.11;99162.63;5061968;28;20028;-64
2023/09/22 10:17:33;;;;;;;1.60;0.70;;;;;;;19.44;90.88;99154.63;5062783;28;20037;-62
2023/09/22 10:20:02;;;;;;;1.90;0.77;;;;;;;19.87;94.68;99150.09;5062271;28;20040;-64
2023/09/22 10:22:30;;;;;;;4.75;0.88;;;;;;;20.09;88.78;99163.50;5062843;28;20486;-64
2023/09/22 10:25:11;;;;;;;0.77;0.50;;;;;;;19.50;84.38;99162.53;5063252;28;20085;-63
2023/09/22 10:27:56;;;;;;;0.98;0.80;;;;;;;19.24;84.28;99153.38;5064236;28;20029;-65
2023/09/22 10:30:23;;;;;;;1.23;0.70;;;;;;;19.44;86.92;99141.13;5062444;28;20048;-63
2023/09/22 10:32:48;;;;;;;2.53;0.50;;;;;;;20.02;81.85;99136.72;5062703;28;20048;-63
2023/09/22 10:35:40;;;;;;;2.65;0.60;;;;;;;20.89;79.67;99137.88;5063992;28;20125;-62
2023/09/22 10:38:05;;;;;;;1.20;0.70;;;;;;;21.30;78.17;99130.66;5057913;28;20086;-64
2023/09/22 10:40:31;;;;;;;0.63;0.40;;;;;;;21.50;68.33;99132.56;5053525;28;20041;-64
2023/09/22 10:43:02;;;;;;;0.63;0.50;;;;;;;21.91;70.31;99129.81;5053196;28;20454;-63
2023/09/22 10:45:29;;;;;;;1.38;0.52;;;;;;;22.36;70.36;99130.78;5053348;28;20037;-63
2023/09/22 10:47:58;;;;;;;0.77;0.50;;;;;;;22.91;65.04;99126.19;5052141;28;20087;-64
2023/09/22 10:50:31;;;;;;;0.50;0.40;;;;;;;23.41;66.70;99130.47;5053240;28;20087;-64
2023/09/22 10:53:05;;;;;;;1.02;0.65;;;;;;;23.95;65.65;99129.44;5052367;28;20037;-64
2023/09/22 10:55:36;;;;;;;0.70;0.38;;;;;;;24.28;55.03;99132.34;5053085;28;20452;-64
2023/09/22 10:58:06;;;;;;;0.68;0.40;;;;;;;24.24;55.81;99134.00;5053087;28;20062;-64
2023/09/22 11:00:35;;;;;;;0.90;0.55;;;;;;;24.58;53.18;99136.59;5053035;28;20116;-64
2023/09/22 11:03:19;;;;;;;1.42;0.50;;;;;;;24.53;52.58;99145.66;5052755;28;20060;-64
2023/09/22 11:05:55;;;;;;;0.80;0.40;;;;;;;23.89;50.17;99135.22;5052850;28;20090;-63
2023/09/22 11:08:21;;;;;;;1.42;0.60;;;;;;;23.36;49.64;99132.41;5052880;28;20040;-64
2023/09/22 11:10:51;;;;;;;0.68;0.45;;;;;;;22.97;52.04;99125.06;5052777;28;20045;-63
2023/09/22 11:13:18;;;;;;;1.60;0.73;;;;;;;23.02;54.19;99123.13;5052527;28;20033;-63
2023/09/22 11:15:56;;;;;;;1.27;0.63;;;;;;;23.37;57.26;99113.09;5052606;28;20094;-65
2023/09/22 11:18:27;;;;;;;1.35;0.60;;;;;;;23.34;54.25;99119.06;5052613;28;20076;-64
2023/09/22 11:21:05;;;;;;;1.23;0.32;;;;;;;23.83;53.06;99116.22;5052672;28;20035;-65
2023/09/22 11:23:32;;;;;;;0.80;0.40;;;;;;;24.31;49.47;99118.94;5052361;28;20036;-63
2023/09/22 11:26:07;;;;;;;1.50;0.70;;;;;;;24.66;52.26;99116.91;5052641;28;20029;-64
2023/09/22 11:28:33;;;;;;;1.40;0.40;;;;;;;25.36;49.08;99111.50;5052600;28;20033;-64
2023/09/22 11:31:14;;;;;;;2.08;0.70;;;;;;;25.43;45.78;99113.88;5051668;28;20045;-63
2023/09/22 11:33:41;;;;;;;0.55;0.43;;;;;;;25.35;45.13;99114.53;5052205;28;20037;-64
2023/09/22 11:36:07;;;;;;;;;;;;;;;25.13;46.10;99132.34;5052819;28;20063;-64
2023/09/22 11:38:34;;;;;;;2.27;0.80;;;;;;;24.93;45.66;99118.19;5052318;28;19912;-62
2023/09/22 11:41:07;;;;;;;1.48;0.52;;;;;;;23.92;47.48;99105.53;5052328;28;20039;-63
2023/09/22 11:43:36;;;;;;;2.50;1.52;;;;;;;22.85;49.00;99109.09;5052043;28;20126;-64
2023/09/22 11:46:10;;;;;;;1.90;0.90;;;;;;;22.08;51.60;99103.19;5052150;28;20041;-64
2023/09/22 11:48:54;;;;;;;1.42;0.80;;;;;;;21.98;53.05;99103.22;5052292;28;20403;-64
2023/09/22 11:51:20;;;;;;;1.20;0.60;;;;;;;21.86;54.38;99108.13;5052038;28;20037;-64
2023/09/22 11:53:46;;;;;;;1.02;0.65;;;;;;;21.70;52.71;99104.63;5051921;28;20128;-62
2023/09/22 11:56:11;;;;;;;2.72;0.82;;;;;;;22.23;53.17;99115.91;5066866;28;20108;-63
2023/09/22 11:58:38;;;;;;;1.63;0.63;;;;;;;22.23;51.08;99110.47;5072091;28;20534;-64
2023/09/22 12:01:05;;;;;;;2.15;0.80;;;;;;;21.90;54.54;99115.41;5072093;28;20040;-62
2023/09/22 12:03:32;;;;;;;0.88;0.50;;;;;;;21.76;53.58;99110.84;5071813;28;20024;-64
2023/09/22 12:05:59;;;;;;;1.00;0.57;;;;;;;21.48;56.38;99112.25;5071936;28;20127;-63
2023/09/22 12:08:24;;;;;;;0.90;0.50;;;;;;;21.31;54.89;99104.38;5071905;28;20058;-63
2023/09/22 12:10:50;;;;;;;2.17;0.50;;;;;;;21.51;56.91;99101.66;5071999;28;20453;-65
2023/09/22 12:13:15;;;;;;;2.03;0.30;;;;;;;21.28;58.42;99108.47;5070496;28;20041;-62
2023/09/22 12:15:41;;;;;;;1.10;0.68;;;;;;;21.21;57.44;99107.88;5070122;28;20044;-64
2023/09/22 12:18:06;;;;;;;0.98;0.63;;;;;;;21.26;58.04;99107.91;5071512;28;20041;-64
2023/09/22 12:20:32;;;;;;;1.70;0.60;;;;;;;21.54;60.12;99103.03;5071742;28;20040;-63
2023/09/22 12:22:57;;;;;;;1.75;0.65;;;;;;;22.31;58.13;99101.78;5071564;28;20463;-64
2023/09/22 12:25:22;;;;;;;2.88;0.80;;;;;;;23.52;54.07;99099.38;5071776;28;20032;-64
2023/09/22 12:27:48;;;;;;;0.60;0.40;;;;;;;24.54;50.95;99092.03;5071677;28;20407;-63
2023/09/22 12:30:14;;;;;;;1.70;0.60;;;;;;;24.90;50.02;99100.50;5071809;28;20503;-64
2023/09/22 12:32:39;;;;;;;0.95;0.50;;;;;;;25.44;48.75;99099.16;5071373;28;20544;-55
2023/09/22 12:35:05;;;;;;;1.38;0.50;;;;;;;25.71;46.69;99103.84;5070449;28;20029;-58
2023/09/22 12:37:33;;;;;;;1.05;0.52;;;;;;;25.80;46.24;99090.34;5069693;28;20062;-57
2023/09/22 12:40:00;;;;;;;0.77;0.57;;;;;;;26.68;43.48;99086.38;5071613;28;20115;-59
2023/09/22 12:42:26;;;;;;;2.78;0.65;;;;;;;26.66;44.17;99074.94;5071844;28;20047;-58
2023/09/22 12:44:51;;;;;;;2.13;0.65;;;;;;;26.49;43.34;99074.81;5075469;28;20033;-60
2023/09/22 12:47:17;;;;;;;1.88;0.70;;;;;;;25.88;43.61;99074.09;5073610;28;20040;-58
2023/09/22 12:49:43;;;;;;;3.13;0.70;;;;;;;25.04;45.38;99085.09;5075039;28;20032;-57
2023/09/22 12:52:08;;;;;;;0.82;0.40;;;;;;;24.52;46.54;99086.91;5075217;28;20481;-58
2023/09/22 12:54:33;;;;;;;0.60;0.40;;;;;;;24.89;47.87;99077.09;5075126;28;20488;-55
2023/09/22 12:56:59;;;;;;;0.82;0.60;;;;;;;25.78;46.14;99076.22;5075162;28;20055;-60
2023/09/22 12:59:24;;;;;;;1.08;0.40;;;;;;;26.35;44.94;99074.81;5075309;28;20044;-61
2023/09/22 13:01:50;;;;;;;3.65;0.60;;;;;;;26.86;43.86;99072.88;5075157;28;20136;-59
2023/09/22 13:04:15;;;;;;;1.17;0.60;;;;;;;27.31;42.26;99066.31;5074950;28;20566;-56
2023/09/22 13:06:42;;;;;;;1.50;0.73;;;;;;;28.08;40.87;99062.38;5074965;28;20509;-54
2023/09/22 13:09:08;;;;;;;0.65;0.50;;;;;;;27.07;42.36;99060.38;5075140;28;20439;-56
2023/09/22 13:11:33;;;;;;;2.25;0.82;;;;;;;27.17;38.97;99053.84;5074997;28;20056;-57
2023/09/22 13:13:59;;;;;;;1.77;0.60;;;;;;;27.66;39.57;99060.25;5074730;28;20028;-59
2023/09/22 13:16:24;;;;;;;2.25;1.00;;;;;;;26.73;39.42;99045.31;5067576;28;20041;-58
2023/09/22 13:18:50;;;;;;;1.88;0.80;;;;;;;26.10;39.95;99067.94;5074890;28;20028;-54
2023/09/22 13:21:16;;;;;;;1.83;0.70;;;;;;;26.28;38.71;99052.56;5074778;28;20029;-57
2023/09/22 13:23:42;;;;;;;1.65;0.75;;;;;;;26.89;38.54;99061.34;5073452;28;20080;-57
2023/09/22 13:26:07;;;;;;;0.82;0.60;;;;;;;27.07;38.52;99056.84;5074982;28;20056;-59
2023/09/22 13:28:33;;;;;;;2.05;0.60;;;;;;;26.70;37.88;99045.91;5074909;28;20025;-58
2023/09/22 13:30:58;;;;;;;0.95;0.50;;;;;;;26.33;37.56;99046.97;5074763;28;20149;-57
2023/09/22 13:33:26;;;;;;;1.65;0.70;;;;;;;26.16;38.58;99047.63;5074495;28;20040;-59
2023/09/22 13:35:52;;;;;;;0.90;0.57;;;;;;;26.75;37.67;99040.34;5071330;28;20047;-58
2023/09/22 13:38:20;;;;;;;1.30;0.60;;;;;;;26.91;36.78;99043.50;5062446;28;20029;-59
2023/09/22 13:40:50;;;;;;;3.00;0.73;;;;;;;27.09;35.43;99054.59;5063131;28;20165;-61
2023/09/22 13:43:15;;;;;;;1.75;0.52;;;;;;;26.95;36.46;99054.63;5062133;28;20040;-60
2023/09/22 13:45:41;;;;;;;1.15;0.47;;;;;;;27.48;35.19;99053.88;5064155;28;20017;-59
2023/09/22 13:48:10;;;;;;;1.48;0.60;;;;;;;27.67;35.22;99049.00;5063054;28;20573;-58
2023/09/22 13:50:38;;;;;;;3.58;0.90;;;;;;;28.02;36.11;99044.47;5064467;28;20043;-58
2023/09/22 13:53:05;;;;;;;2.38;0.77;;;;;;;28.18;35.49;99042.13;5063824;28;20037;-61
2023/09/22 13:55:33;;;;;;;4.18;0.85;;;;;;;27.67;35.75;99043.53;5062790;28;20037;-58
2023/09/22 13:57:59;;;;;;;2.53;0.70;;;;;;;26.55;38.28;99048.19;5064106;28;20032;-59
2023/09/22 14:00:25;;;;;;;1.83;0.60;;;;;;;25.45;37.87;99046.25;5064900;28;20594;-58
2023/09/22 14:02:51;;;;;;;2.80;0.65;;;;;;;24.38;40.85;99042.44;5065198;28;20640;-56
2023/09/22 14:05:17;;;;;;;1.77;0.98;;;;;;;23.86;42.18;99040.59;5063362;28;20037;-59
2023/09/22 14:07:42;;;;;;;1.52;0.80;;;;;;;23.52;42.57;99039.56;5062438;28;20033;-55
2023/09/22 14:10:10;;;;;;;4.53;1.95;;;;;;;22.86;45.03;99037.44;5064556;28;20048;-58
2023/09/22 14:12:36;;;;;;;1.88;0.60;;;;;;;22.78;44.20;99035.31;5063884;28;20487;-62
2023/09/22 14:15:02;;;;;;;2.67;0.80;;;;;;;22.51;44.78;99024.91;5061899;28;20047;-59
2023/09/22 14:17:28;;;;;;;2.28;0.70;;;;;;;22.43;45.50;99022.75;5064311;28;20127;-61
2023/09/22 14:19:53;;;;;;;1.10;0.60;;;;;;;22.40;46.10;99028.75;5065454;28;20041;-57
2023/09/22 14:22:18;;;;;;;1.63;0.90;;;;;;;22.29;44.79;99027.19;5064184;28;20059;-57
2023/09/22 14:24:46;;;;;;;1.52;0.93;;;;;;;22.12;43.61;99031.09;5062760;28;20039;-61
2023/09/22 14:27:13;;;;;;;1.23;0.63;;;;;;;21.94;44.17;99032.47;5056291;28;20041;-60
2023/09/22 14:29:39;;;;;;;2.10;0.90;;;;;;;21.81;44.36;99034.97;5053784;28;20040;-61
2023/09/22 14:32:05;;;;;;;1.65;0.80;;;;;;;21.62;44.54;99026.59;5053535;28;20049;-58
2023/09/22 14:34:31;;;;;;;2.55;0.90;;;;;;;21.48;45.50;99028.28;5053493;28;20123;-57
2023/09/22 14:36:56;;;;;;;1.92;1.17;;;;;;;21.21;45.61;99029.34;5053517;28;20083;-59
2023/09/22 14:39:22;;;;;;;3.95;1.00;;;;;;;21.17;46.56;99033.69;5053622;28;20037;-61
2023/09/22 14:41:48;;;;;;;4.70;1.20;;;;;;;21.10;45.84;99033.97;5053501;28;20041;-59
2023/09/22 14:44:13;;;;;;;3.08;0.95;;;;;;;21.26;46.27;99039.38;5053259;28;20067;-58
2023/09/22 14:46:39;;;;;;;0.55;0.40;;;;;;;21.23;46.80;99035.31;5053434;28;20041;-58
2023/09/22 14:49:05;;;;;;;2.15;0.90;;;;;;;21.23;45.72;99035.31;5053275;28;20076;-56
2023/09/22 14:51:31;;;;;;;1.58;0.90;;;;;;;21.26;46.59;99028.56;5053325;28;20079;-57
2023/09/22 14:54:00;;;;;;;1.63;0.60;;;;;;;21.21;46.95;99034.78;5052934;28;20045;-59
2023/09/22 14:56:29;;;;;;;1.23;0.60;;;;;;;21.23;47.78;99032.59;5053109;28;20047;-57
2023/09/22 14:58:55;;;;;;;1.95;0.85;;;;;;;21.28;47.22;99032.63;5053077;28;20041;-56
2023/09/22 15:01:21;;;;;;;1.65;0.85;;;;;;;21.24;46.68;99028.00;5053093;28;20492;-59
2023/09/22 15:03:46;;;;;;;2.47;1.08;;;;;;;21.30;45.91;99038.56;5051549;28;20037;-59
2023/09/22 15:06:14;;;;;;;3.00;1.00;;;;;;;21.18;46.39;99042.63;5052036;28;20442;-59
2023/09/22 15:08:41;;;;;;;3.20;1.10;;;;;;;21.17;47.33;99041.81;5053025;28;20547;-61
2023/09/22 15:11:07;;;;;;;1.27;0.82;;;;;;;21.16;47.58;99048.31;5052871;28;20541;-58
2023/09/22 15:13:32;;;;;;;5.68;1.00;;;;;;;21.06;45.96;99048.28;5052461;28;20028;-59
2023/09/22 15:16:04;;;;;;;2.97;0.75;;;;;;;21.07;45.87;99039.13;5052693;28;20049;-56
2023/09/22 15:18:29;;;;;;;1.95;0.80;;;;;;;21.07;46.44;99044.53;5052847;28;20033;-58
2023/09/22 15:21:04;;;;;;;7.85;1.70;;;;;;;21.09;46.93;99043.16;5052737;28;20036;-58
2023/09/22 15:23:29;;;;;;;2.65;1.00;;;;;;;21.08;46.81;99046.16;5052366;28;20099;-58
2023/09/22 15:25:55;;;;;;;1.15;0.70;;;;;;;20.92;47.21;99048.03;5052442;28;20037;-58
2023/09/22 15:28:21;;;;;;;1.67;0.90;;;;;;;20.88;46.82;99041.53;5052646;28;20052;-59
2023/09/22 15:30:46;;;;;;;2.92;0.77;;;;;;;20.71;47.56;99044.50;5052472;28;20094;-56
2023/09/22 15:33:12;;;;;;;2.45;1.00;;;;;;;20.79;46.18;99043.16;5052357;28;20613;-58
2023/09/22 15:35:41;;;;;;;2.10;0.73;;;;;;;20.74;46.42;99035.03;5052533;28;20120;-58
2023/09/22 15:38:12;;;;;;;2.97;1.02;;;;;;;20.71;47.17;99038.28;5052590;28;20037;-57
2023/09/22 15:40:39;;;;;;;2.83;0.90;;;;;;;20.63;46.52;99039.63;5052512;28;20068;-58
2023/09/22 15:43:04;;;;;;;1.70;0.93;;;;;;;20.57;47.07;99046.09;5052185;28;20104;-64
2023/09/22 15:45:30;;;;;;;2.25;0.98;;;;;;;20.59;46.17;99042.03;5052330;28;20492;-64
2023/09/22 15:47:55;;;;;;;2.88;0.80;;;;;;;20.53;47.72;99043.09;5052315;28;20498;-64
2023/09/22 15:50:21;;;;;;;1.83;1.02;;;;;;;20.47;47.22;99040.66;5052392;28;20049;-63
2023/09/22 15:52:47;;;;;;;3.67;1.30;;;;;;;20.45;48.21;99049.03;5051909;28;20477;-63